sensor_id;sensor_type;location;lat;lon;timestamp;temperature;humidity
10276;DHT22;5183;51.190;6.820;2023-03-23T00:00:31;12.60;1.00
10276;DHT22;5183;51.190;6.820;2023-03-23T00:02:58;12.70;1.00
10276;DHT22;5183;51.190;6.820;2023-03-23T00:05:27;12.70;65.90
10276;DHT22;5183;51.190;6.820;2023-03-23T00:07:55;12.70;1.00
10276;DHT22;5183;51.190;6.820;2023-03-23T00:10:22;12.70;1.00
10276;DHT22;5183;51.190;6.820;2023-03-23T00:12:49;12.80;1.00
10276;DHT22;5183;51.190;6.820;2023-03-23T00:15:16;12.80;99.90
10276;DHT22;5183;51.190;6.820;2023-03-23T00:17:43;12.80;99.90
10276;DHT22;5183;51.190;6.820;2023-03-23T00:20:10;12.80;71.60
10276;DHT22;5183;51.190;6.820;2023-03-23T00:22:38;12.80;99.90
10276;DHT22;5183;51.190;6.820;2023-03-23T00:25:08;12.80;1.00
10276;DHT22;5183;51.190;6.820;2023-03-23T00:27:35;12.80;99.90
10276;DHT22;5183;51.190;6.820;2023-03-23T00:30:02;12.80;1.00
10276;DHT22;5183;51.190;6.820;2023-03-23T00:32:29;12.80;99.90
10276;DHT22;5183;51.190;6.820;2023-03-23T00:34:56;12.70;99.90
10276;DHT22;5183;51.190;6.820;2023-03-23T00:37:25;12.70;99.90
10276;DHT22;5183;51.190;6.820;2023-03-23T00:39:52;12.80;99.90
10276;DHT22;5183;51.190;6.820;2023-03-23T00:42:24;12.80;99.90
10276;DHT22;5183;51.190;6.820;2023-03-23T00:44:51;12.80;24.80
10276;DHT22;5183;51.190;6.820;2023-03-23T00:47:26;12.70;1.00
10276;DHT22;5183;51.190;6.820;2023-03-23T00:49:53;12.60;1.00
10276;DHT22;5183;51.190;6.820;2023-03-23T00:52:21;12.60;99.90
10276;DHT22;5183;51.190;6.820;2023-03-23T00:54:48;12.60;1.00
10276;DHT22;5183;51.190;6.820;2023-03-23T00:57:15;12.60;99.90
10276;DHT22;5183;51.190;6.820;2023-03-23T00:59:44;12.60;99.90
10276;DHT22;5183;51.190;6.820;2023-03-23T01:02:11;12.50;99.90
10276;DHT22;5183;51.190;6.820;2023-03-23T01:04:38;12.50;1.00
10276;DHT22;5183;51.190;6.820;2023-03-23T01:07:05;12.60;99.90
10276;DHT22;5183;51.190;6.820;2023-03-23T01:09:33;12.50;1.00
10276;DHT22;5183;51.190;6.820;2023-03-23T01:12:01;12.50;99.90
10276;DHT22;5183;51.190;6.820;2023-03-23T01:14:28;12.50;99.90
10276;DHT22;5183;51.190;6.820;2023-03-23T01:16:56;12.50;99.90
10276;DHT22;5183;51.190;6.820;2023-03-23T01:19:23;12.50;45.20
10276;DHT22;5183;51.190;6.820;2023-03-23T01:21:50;12.50;99.90
10276;DHT22;5183;51.190;6.820;2023-03-23T01:24:17;12.50;99.90
10276;DHT22;5183;51.190;6.820;2023-03-23T01:26:43;12.50;99.90
10276;DHT22;5183;51.190;6.820;2023-03-23T01:29:10;12.50;99.90
10276;DHT22;5183;51.190;6.820;2023-03-23T01:31:37;12.30;99.90
10276;DHT22;5183;51.190;6.820;2023-03-23T01:34:05;12.40;99.90
10276;DHT22;5183;51.190;6.820;2023-03-23T01:36:33;12.40;99.90
10276;DHT22;5183;51.190;6.820;2023-03-23T01:39:02;12.40;99.90
10276;DHT22;5183;51.190;6.820;2023-03-23T01:41:29;12.40;90.20
10276;DHT22;5183;51.190;6.820;2023-03-23T01:43:59;12.50;1.00
10276;DHT22;5183;51.190;6.820;2023-03-23T01:46:29;12.40;99.90
10276;DHT22;5183;51.190;6.820;2023-03-23T01:48:57;12.20;99.90
10276;DHT22;5183;51.190;6.820;2023-03-23T01:51:27;12.20;1.00
10276;DHT22;5183;51.190;6.820;2023-03-23T01:53:56;12.10;43.70
10276;DHT22;5183;51.190;6.820;2023-03-23T01:56:26;11.90;99.90
10276;DHT22;5183;51.190;6.820;2023-03-23T01:58:56;11.80;99.90
10276;DHT22;5183;51.190;6.820;2023-03-23T02:01:24;11.80;99.90
10276;DHT22;5183;51.190;6.820;2023-03-23T02:03:54;11.70;99.90
10276;DHT22;5183;51.190;6.820;2023-03-23T02:06:22;11.70;1.00
10276;DHT22;5183;51.190;6.820;2023-03-23T02:08:52;11.60;1.00
10276;DHT22;5183;51.190;6.820;2023-03-23T02:11:20;11.60;1.00
10276;DHT22;5183;51.190;6.820;2023-03-23T02:13:48;11.60;46.50
10276;DHT22;5183;51.190;6.820;2023-03-23T02:16:21;11.60;99.90
10276;DHT22;5183;51.190;6.820;2023-03-23T02:19:13;11.50;99.90
10276;DHT22;5183;51.190;6.820;2023-03-23T02:24:57;11.50;99.90
10276;DHT22;5183;51.190;6.820;2023-03-23T02:33:45;11.40;1.00
10276;DHT22;5183;51.190;6.820;2023-03-23T02:36:20;11.40;1.00
10276;DHT22;5183;51.190;6.820;2023-03-23T02:38:53;11.30;1.00
10276;DHT22;5183;51.190;6.820;2023-03-23T02:41:25;11.30;1.00
10276;DHT22;5183;51.190;6.820;2023-03-23T02:43:55;11.30;1.00
10276;DHT22;5183;51.190;6.820;2023-03-23T02:46:23;11.30;1.00
10276;DHT22;5183;51.190;6.820;2023-03-23T02:48:53;11.30;1.00
10276;DHT22;5183;51.190;6.820;2023-03-23T02:51:23;11.20;1.00
10276;DHT22;5183;51.190;6.820;2023-03-23T02:53:52;11.30;1.00
10276;DHT22;5183;51.190;6.820;2023-03-23T02:56:22;11.30;1.00
10276;DHT22;5183;51.190;6.820;2023-03-23T02:58:49;11.30;1.00
10276;DHT22;5183;51.190;6.820;2023-03-23T03:04:19;11.30;99.90
10276;DHT22;5183;51.190;6.820;2023-03-23T03:07:00;11.30;99.90
10276;DHT22;5183;51.190;6.820;2023-03-23T03:09:37;11.30;99.90
10276;DHT22;5183;51.190;6.820;2023-03-23T03:12:12;11.30;1.00
10276;DHT22;5183;51.190;6.820;2023-03-23T03:14:44;11.30;1.00
10276;DHT22;5183;51.190;6.820;2023-03-23T03:17:20;11.30;99.90
10276;DHT22;5183;51.190;6.820;2023-03-23T03:19:54;11.40;1.00
10276;DHT22;5183;51.190;6.820;2023-03-23T03:22:21;11.40;99.90
10276;DHT22;5183;51.190;6.820;2023-03-23T03:24:50;11.40;99.90
10276;DHT22;5183;51.190;6.820;2023-03-23T03:27:18;11.40;99.90
10276;DHT22;5183;51.190;6.820;2023-03-23T03:29:53;11.50;99.90
10276;DHT22;5183;51.190;6.820;2023-03-23T03:32:26;11.40;99.90
10276;DHT22;5183;51.190;6.820;2023-03-23T03:35:00;11.50;99.90
10276;DHT22;5183;51.190;6.820;2023-03-23T03:37:33;11.50;99.90
10276;DHT22;5183;51.190;6.820;2023-03-23T03:40:04;11.50;99.90
10276;DHT22;5183;51.190;6.820;2023-03-23T03:42:38;11.50;99.90
10276;DHT22;5183;51.190;6.820;2023-03-23T03:45:06;11.50;99.90
10276;DHT22;5183;51.190;6.820;2023-03-23T03:47:33;11.50;3.50
10276;DHT22;5183;51.190;6.820;2023-03-23T03:50:02;11.50;99.90
10276;DHT22;5183;51.190;6.820;2023-03-23T03:52:29;11.50;48.20
10276;DHT22;5183;51.190;6.820;2023-03-23T03:54:56;11.50;1.00
10276;DHT22;5183;51.190;6.820;2023-03-23T03:57:23;11.50;32.50
10276;DHT22;5183;51.190;6.820;2023-03-23T03:59:50;11.50;99.90
10276;DHT22;5183;51.190;6.820;2023-03-23T04:02:18;11.50;80.00
10276;DHT22;5183;51.190;6.820;2023-03-23T04:04:46;11.50;93.90
10276;DHT22;5183;51.190;6.820;2023-03-23T04:07:15;11.50;99.90
10276;DHT22;5183;51.190;6.820;2023-03-23T04:09:42;11.50;1.00
10276;DHT22;5183;51.190;6.820;2023-03-23T04:12:12;11.50;99.90
10276;DHT22;5183;51.190;6.820;2023-03-23T04:14:38;11.60;99.90
10276;DHT22;5183;51.190;6.820;2023-03-23T04:17:05;11.60;99.90
10276;DHT22;5183;51.190;6.820;2023-03-23T04:19:34;11.60;99.90
10276;DHT22;5183;51.190;6.820;2023-03-23T04:22:02;11.60;1.00
10276;DHT22;5183;51.190;6.820;2023-03-23T04:24:31;11.60;36.50
10276;DHT22;5183;51.190;6.820;2023-03-23T04:26:59;11.60;99.90
10276;DHT22;5183;51.190;6.820;2023-03-23T04:29:27;11.60;99.90
10276;DHT22;5183;51.190;6.820;2023-03-23T04:31:54;11.60;99.90
10276;DHT22;5183;51.190;6.820;2023-03-23T04:34:21;11.60;80.30
10276;DHT22;5183;51.190;6.820;2023-03-23T04:36:49;11.60;99.90
10276;DHT22;5183;51.190;6.820;2023-03-23T04:39:16;11.60;99.90
10276;DHT22;5183;51.190;6.820;2023-03-23T04:41:44;11.60;8.00
10276;DHT22;5183;51.190;6.820;2023-03-23T04:44:12;11.60;61.70
10276;DHT22;5183;51.190;6.820;2023-03-23T04:46:43;11.70;1.00
10276;DHT22;5183;51.190;6.820;2023-03-23T04:49:11;11.60;1.00
10276;DHT22;5183;51.190;6.820;2023-03-23T04:51:39;11.60;99.90
10276;DHT22;5183;51.190;6.820;2023-03-23T04:54:06;11.70;99.90
10276;DHT22;5183;51.190;6.820;2023-03-23T04:56:34;11.70;99.90
10276;DHT22;5183;51.190;6.820;2023-03-23T04:59:03;11.70;1.00
10276;DHT22;5183;51.190;6.820;2023-03-23T05:01:31;11.70;99.90
10276;DHT22;5183;51.190;6.820;2023-03-23T05:03:59;11.70;1.00
10276;DHT22;5183;51.190;6.820;2023-03-23T05:06:27;11.80;99.90
10276;DHT22;5183;51.190;6.820;2023-03-23T05:08:54;11.80;99.90
10276;DHT22;5183;51.190;6.820;2023-03-23T05:11:21;11.80;1.00
10276;DHT22;5183;51.190;6.820;2023-03-23T05:13:48;11.80;99.90
10276;DHT22;5183;51.190;6.820;2023-03-23T05:16:16;11.80;99.90
10276;DHT22;5183;51.190;6.820;2023-03-23T05:18:43;11.80;99.90
10276;DHT22;5183;51.190;6.820;2023-03-23T05:21:11;11.90;1.00
10276;DHT22;5183;51.190;6.820;2023-03-23T05:23:39;11.90;1.00
10276;DHT22;5183;51.190;6.820;2023-03-23T05:26:06;11.80;1.00
10276;DHT22;5183;51.190;6.820;2023-03-23T05:28:33;11.80;90.10
10276;DHT22;5183;51.190;6.820;2023-03-23T05:31:01;11.90;1.00
10276;DHT22;5183;51.190;6.820;2023-03-23T05:33:30;11.90;5.10
10276;DHT22;5183;51.190;6.820;2023-03-23T05:35:57;11.90;99.90
10276;DHT22;5183;51.190;6.820;2023-03-23T05:38:23;12.00;8.70
10276;DHT22;5183;51.190;6.820;2023-03-23T05:40:51;12.00;99.90
10276;DHT22;5183;51.190;6.820;2023-03-23T05:43:18;12.00;72.40
10276;DHT22;5183;51.190;6.820;2023-03-23T05:45:44;12.10;99.90
10276;DHT22;5183;51.190;6.820;2023-03-23T05:48:12;12.10;82.20
10276;DHT22;5183;51.190;6.820;2023-03-23T05:50:40;12.10;99.90
10276;DHT22;5183;51.190;6.820;2023-03-23T05:53:07;12.20;90.90
10276;DHT22;5183;51.190;6.820;2023-03-23T05:55:34;12.20;1.00
10276;DHT22;5183;51.190;6.820;2023-03-23T05:58:01;12.20;1.00
10276;DHT22;5183;51.190;6.820;2023-03-23T06:00:27;12.20;1.00
10276;DHT22;5183;51.190;6.820;2023-03-23T06:02:55;12.20;1.00
10276;DHT22;5183;51.190;6.820;2023-03-23T06:05:23;12.20;99.90
10276;DHT22;5183;51.190;6.820;2023-03-23T06:07:52;12.20;99.90
10276;DHT22;5183;51.190;6.820;2023-03-23T06:10:19;12.20;99.90
10276;DHT22;5183;51.190;6.820;2023-03-23T06:12:47;12.30;99.90
10276;DHT22;5183;51.190;6.820;2023-03-23T06:15:14;12.30;99.90
10276;DHT22;5183;51.190;6.820;2023-03-23T06:17:41;12.40;1.00
10276;DHT22;5183;51.190;6.820;2023-03-23T06:20:09;12.40;38.60
10276;DHT22;5183;51.190;6.820;2023-03-23T06:22:36;12.40;1.00
10276;DHT22;5183;51.190;6.820;2023-03-23T06:25:07;12.40;1.00
10276;DHT22;5183;51.190;6.820;2023-03-23T06:27:34;12.40;1.00
10276;DHT22;5183;51.190;6.820;2023-03-23T06:30:02;12.50;1.00
10276;DHT22;5183;51.190;6.820;2023-03-23T06:32:30;12.40;99.90
10276;DHT22;5183;51.190;6.820;2023-03-23T06:34:58;12.50;1.00
10276;DHT22;5183;51.190;6.820;2023-03-23T06:37:24;12.50;99.90
10276;DHT22;5183;51.190;6.820;2023-03-23T06:39:51;12.50;30.20
10276;DHT22;5183;51.190;6.820;2023-03-23T06:42:21;12.50;1.00
10276;DHT22;5183;51.190;6.820;2023-03-23T06:44:49;12.60;1.00
10276;DHT22;5183;51.190;6.820;2023-03-23T06:47:17;12.60;93.60
10276;DHT22;5183;51.190;6.820;2023-03-23T06:49:43;12.60;1.00
10276;DHT22;5183;51.190;6.820;2023-03-23T06:52:10;12.60;1.00
10276;DHT22;5183;51.190;6.820;2023-03-23T06:54:37;12.60;1.00
10276;DHT22;5183;51.190;6.820;2023-03-23T06:57:04;12.60;1.00
10276;DHT22;5183;51.190;6.820;2023-03-23T06:59:32;12.60;1.00
10276;DHT22;5183;51.190;6.820;2023-03-23T07:01:59;12.70;1.00
10276;DHT22;5183;51.190;6.820;2023-03-23T07:04:27;12.70;1.00
10276;DHT22;5183;51.190;6.820;2023-03-23T07:06:54;12.70;99.90
10276;DHT22;5183;51.190;6.820;2023-03-23T07:09:22;12.70;1.00
10276;DHT22;5183;51.190;6.820;2023-03-23T07:11:49;12.70;1.00
10276;DHT22;5183;51.190;6.820;2023-03-23T07:14:17;12.70;1.00
10276;DHT22;5183;51.190;6.820;2023-03-23T07:16:45;12.70;1.00
10276;DHT22;5183;51.190;6.820;2023-03-23T07:19:12;12.70;1.00
10276;DHT22;5183;51.190;6.820;2023-03-23T07:21:38;12.80;1.00
10276;DHT22;5183;51.190;6.820;2023-03-23T07:24:09;12.80;99.90
10276;DHT22;5183;51.190;6.820;2023-03-23T07:26:37;12.90;99.90
10276;DHT22;5183;51.190;6.820;2023-03-23T07:29:03;12.90;99.90
10276;DHT22;5183;51.190;6.820;2023-03-23T07:31:30;12.90;99.90
10276;DHT22;5183;51.190;6.820;2023-03-23T07:33:59;12.90;99.90
10276;DHT22;5183;51.190;6.820;2023-03-23T07:36:26;12.90;99.90
10276;DHT22;5183;51.190;6.820;2023-03-23T07:38:53;12.90;90.60
10276;DHT22;5183;51.190;6.820;2023-03-23T07:41:20;12.90;25.40
10276;DHT22;5183;51.190;6.820;2023-03-23T07:43:47;13.00;1.00
10276;DHT22;5183;51.190;6.820;2023-03-23T07:46:14;13.00;1.00
10276;DHT22;5183;51.190;6.820;2023-03-23T07:48:41;13.00;1.00
10276;DHT22;5183;51.190;6.820;2023-03-23T07:51:10;13.10;1.00
10276;DHT22;5183;51.190;6.820;2023-03-23T07:53:37;13.10;1.00
10276;DHT22;5183;51.190;6.820;2023-03-23T07:56:04;13.10;1.00
10276;DHT22;5183;51.190;6.820;2023-03-23T07:58:31;13.10;99.90
10276;DHT22;5183;51.190;6.820;2023-03-23T08:00:58;13.10;99.90
10276;DHT22;5183;51.190;6.820;2023-03-23T08:03:26;13.10;99.90
10276;DHT22;5183;51.190;6.820;2023-03-23T08:05:53;13.10;99.90
10276;DHT22;5183;51.190;6.820;2023-03-23T08:08:21;13.20;62.70
10276;DHT22;5183;51.190;6.820;2023-03-23T08:10:48;13.30;99.90
10276;DHT22;5183;51.190;6.820;2023-03-23T08:13:15;13.40;99.90
10276;DHT22;5183;51.190;6.820;2023-03-23T08:15:42;13.40;99.90
10276;DHT22;5183;51.190;6.820;2023-03-23T08:18:10;13.50;1.00
10276;DHT22;5183;51.190;6.820;2023-03-23T08:20:37;13.50;1.00
10276;DHT22;5183;51.190;6.820;2023-03-23T08:23:05;13.60;99.90
10276;DHT22;5183;51.190;6.820;2023-03-23T08:25:34;13.60;1.00
10276;DHT22;5183;51.190;6.820;2023-03-23T08:28:02;13.60;99.90
10276;DHT22;5183;51.190;6.820;2023-03-23T08:30:29;13.70;1.00
10276;DHT22;5183;51.190;6.820;2023-03-23T08:32:59;13.70;1.00
10276;DHT22;5183;51.190;6.820;2023-03-23T08:35:26;13.70;1.00
10276;DHT22;5183;51.190;6.820;2023-03-23T08:37:54;13.70;1.00
10276;DHT22;5183;51.190;6.820;2023-03-23T08:40:22;13.80;1.00
10276;DHT22;5183;51.190;6.820;2023-03-23T08:42:52;13.80;1.00
10276;DHT22;5183;51.190;6.820;2023-03-23T08:45:20;13.80;1.00
10276;DHT22;5183;51.190;6.820;2023-03-23T08:47:48;13.80;1.00
10276;DHT22;5183;51.190;6.820;2023-03-23T08:50:18;13.80;1.00
10276;DHT22;5183;51.190;6.820;2023-03-23T08:52:45;14.00;1.00
10276;DHT22;5183;51.190;6.820;2023-03-23T08:55:13;14.10;1.00
10276;DHT22;5183;51.190;6.820;2023-03-23T08:57:40;14.10;1.00
10276;DHT22;5183;51.190;6.820;2023-03-23T09:00:14;14.10;1.00
10276;DHT22;5183;51.190;6.820;2023-03-23T09:02:43;14.10;99.90
10276;DHT22;5183;51.190;6.820;2023-03-23T09:05:11;14.00;1.00
10276;DHT22;5183;51.190;6.820;2023-03-23T09:07:39;13.90;53.80
10276;DHT22;5183;51.190;6.820;2023-03-23T09:10:07;14.00;1.00
10276;DHT22;5183;51.190;6.820;2023-03-23T09:12:35;14.00;1.00
10276;DHT22;5183;51.190;6.820;2023-03-23T09:15:02;13.90;1.00
10276;DHT22;5183;51.190;6.820;2023-03-23T09:17:35;14.00;99.90
10276;DHT22;5183;51.190;6.820;2023-03-23T09:20:05;14.10;1.00
10276;DHT22;5183;51.190;6.820;2023-03-23T09:22:36;14.20;1.00
10276;DHT22;5183;51.190;6.820;2023-03-23T09:25:04;14.30;1.00
10276;DHT22;5183;51.190;6.820;2023-03-23T09:27:31;14.30;1.00
10276;DHT22;5183;51.190;6.820;2023-03-23T09:29:58;14.40;1.00
10276;DHT22;5183;51.190;6.820;2023-03-23T09:32:26;14.30;1.00
10276;DHT22;5183;51.190;6.820;2023-03-23T09:34:54;14.30;1.00
10276;DHT22;5183;51.190;6.820;2023-03-23T09:37:21;14.20;1.00
10276;DHT22;5183;51.190;6.820;2023-03-23T09:39:48;14.20;99.90
10276;DHT22;5183;51.190;6.820;2023-03-23T09:42:31;14.10;99.90
10276;DHT22;5183;51.190;6.820;2023-03-23T09:45:09;14.00;1.00
10276;DHT22;5183;51.190;6.820;2023-03-23T09:47:43;14.00;1.00
10276;DHT22;5183;51.190;6.820;2023-03-23T09:50:16;14.00;1.00
10276;DHT22;5183;51.190;6.820;2023-03-23T09:52:47;14.00;1.00
10276;DHT22;5183;51.190;6.820;2023-03-23T09:55:18;14.00;1.00
10276;DHT22;5183;51.190;6.820;2023-03-23T09:57:49;13.90;1.00
10276;DHT22;5183;51.190;6.820;2023-03-23T10:00:22;14.00;99.90
10276;DHT22;5183;51.190;6.820;2023-03-23T10:02:55;14.20;2.30
10276;DHT22;5183;51.190;6.820;2023-03-23T10:05:31;14.20;95.10
10276;DHT22;5183;51.190;6.820;2023-03-23T10:07:59;14.20;1.00
10276;DHT22;5183;51.190;6.820;2023-03-23T10:10:45;14.20;1.00
10276;DHT22;5183;51.190;6.820;2023-03-23T10:13:19;14.00;1.00
10276;DHT22;5183;51.190;6.820;2023-03-23T10:15:50;13.90;99.90
10276;DHT22;5183;51.190;6.820;2023-03-23T10:18:20;13.40;99.90
10276;DHT22;5183;51.190;6.820;2023-03-23T10:20:55;12.50;99.90
10276;DHT22;5183;51.190;6.820;2023-03-23T10:23:46;11.90;1.00
10276;DHT22;5183;51.190;6.820;2023-03-23T10:26:33;11.60;99.90
10276;DHT22;5183;51.190;6.820;2023-03-23T10:29:08;11.40;99.90
10276;DHT22;5183;51.190;6.820;2023-03-23T10:31:39;11.20;99.90
10276;DHT22;5183;51.190;6.820;2023-03-23T10:34:11;11.10;1.00
10276;DHT22;5183;51.190;6.820;2023-03-23T10:36:59;10.90;99.90
10276;DHT22;5183;51.190;6.820;2023-03-23T10:39:31;10.70;1.00
10276;DHT22;5183;51.190;6.820;2023-03-23T10:42:00;10.60;1.00
10276;DHT22;5183;51.190;6.820;2023-03-23T10:44:33;10.60;1.00
10276;DHT22;5183;51.190;6.820;2023-03-23T10:47:02;10.40;1.00
10276;DHT22;5183;51.190;6.820;2023-03-23T10:49:34;10.30;62.20
10276;DHT22;5183;51.190;6.820;2023-03-23T10:52:09;10.10;99.90
10276;DHT22;5183;51.190;6.820;2023-03-23T10:54:46;10.10;99.90
10276;DHT22;5183;51.190;6.820;2023-03-23T10:57:21;10.20;99.90
10276;DHT22;5183;51.190;6.820;2023-03-23T10:59:49;10.10;99.90
10276;DHT22;5183;51.190;6.820;2023-03-23T11:02:18;10.10;99.90
10276;DHT22;5183;51.190;6.820;2023-03-23T11:04:47;10.10;99.90
10276;DHT22;5183;51.190;6.820;2023-03-23T11:07:26;10.10;99.90
10276;DHT22;5183;51.190;6.820;2023-03-23T11:09:56;10.20;99.90
10276;DHT22;5183;51.190;6.820;2023-03-23T11:12:24;10.20;99.90
10276;DHT22;5183;51.190;6.820;2023-03-23T11:14:51;10.20;99.90
10276;DHT22;5183;51.190;6.820;2023-03-23T11:17:22;10.30;99.90
10276;DHT22;5183;51.190;6.820;2023-03-23T11:19:51;10.30;99.90
10276;DHT22;5183;51.190;6.820;2023-03-23T11:22:26;10.30;99.90
10276;DHT22;5183;51.190;6.820;2023-03-23T11:24:54;10.30;99.90
10276;DHT22;5183;51.190;6.820;2023-03-23T11:27:23;10.30;99.90
10276;DHT22;5183;51.190;6.820;2023-03-23T11:29:52;10.20;99.90
10276;DHT22;5183;51.190;6.820;2023-03-23T11:32:23;10.20;99.90
10276;DHT22;5183;51.190;6.820;2023-03-23T11:34:55;10.10;99.90
10276;DHT22;5183;51.190;6.820;2023-03-23T11:37:29;10.20;99.90
10276;DHT22;5183;51.190;6.820;2023-03-23T11:39:58;10.20;99.90
10276;DHT22;5183;51.190;6.820;2023-03-23T11:42:35;10.30;99.90
10276;DHT22;5183;51.190;6.820;2023-03-23T11:45:18;10.30;99.90
10276;DHT22;5183;51.190;6.820;2023-03-23T11:47:53;10.40;99.90
10276;DHT22;5183;51.190;6.820;2023-03-23T11:50:24;10.60;99.90
10276;DHT22;5183;51.190;6.820;2023-03-23T11:53:00;10.80;99.90
10276;DHT22;5183;51.190;6.820;2023-03-23T11:55:34;11.00;99.90
10276;DHT22;5183;51.190;6.820;2023-03-23T11:58:10;11.20;99.90
10276;DHT22;5183;51.190;6.820;2023-03-23T12:00:43;11.40;99.90
10276;DHT22;5183;51.190;6.820;2023-03-23T12:03:26;11.50;99.90
10276;DHT22;5183;51.190;6.820;2023-03-23T12:06:02;11.40;99.90
10276;DHT22;5183;51.190;6.820;2023-03-23T12:08:48;11.40;99.90
10276;DHT22;5183;51.190;6.820;2023-03-23T12:11:26;11.60;99.90
10276;DHT22;5183;51.190;6.820;2023-03-23T12:14:09;11.90;99.90
10276;DHT22;5183;51.190;6.820;2023-03-23T12:16:55;12.00;99.90
10276;DHT22;5183;51.190;6.820;2023-03-23T12:19:29;12.10;99.90
10276;DHT22;5183;51.190;6.820;2023-03-23T12:22:02;12.30;99.90
10276;DHT22;5183;51.190;6.820;2023-03-23T12:24:50;12.30;99.90
10276;DHT22;5183;51.190;6.820;2023-03-23T12:27:25;12.50;99.90
10276;DHT22;5183;51.190;6.820;2023-03-23T12:30:04;12.70;99.90
10276;DHT22;5183;51.190;6.820;2023-03-23T12:32:48;12.80;99.90
10276;DHT22;5183;51.190;6.820;2023-03-23T12:35:32;12.80;99.90
10276;DHT22;5183;51.190;6.820;2023-03-23T12:38:12;12.40;99.90
10276;DHT22;5183;51.190;6.820;2023-03-23T12:40:55;12.20;99.90
10276;DHT22;5183;51.190;6.820;2023-03-23T12:43:28;12.20;99.90
10276;DHT22;5183;51.190;6.820;2023-03-23T12:46:08;12.10;99.90
10276;DHT22;5183;51.190;6.820;2023-03-23T12:48:40;12.10;99.90
10276;DHT22;5183;51.190;6.820;2023-03-23T12:51:18;12.30;99.90
10276;DHT22;5183;51.190;6.820;2023-03-23T12:53:54;12.70;99.90
10276;DHT22;5183;51.190;6.820;2023-03-23T12:56:28;13.20;99.90
10276;DHT22;5183;51.190;6.820;2023-03-23T12:59:02;13.60;99.90
10276;DHT22;5183;51.190;6.820;2023-03-23T13:01:32;13.60;99.90
10276;DHT22;5183;51.190;6.820;2023-03-23T13:04:03;13.50;99.90
10276;DHT22;5183;51.190;6.820;2023-03-23T13:06:33;13.40;99.90
10276;DHT22;5183;51.190;6.820;2023-03-23T13:09:04;13.40;99.90
10276;DHT22;5183;51.190;6.820;2023-03-23T13:11:35;13.20;99.90
10276;DHT22;5183;51.190;6.820;2023-03-23T13:16:55;13.20;99.90
10276;DHT22;5183;51.190;6.820;2023-03-23T13:19:28;13.10;99.90
10276;DHT22;5183;51.190;6.820;2023-03-23T13:22:01;13.10;99.90
10276;DHT22;5183;51.190;6.820;2023-03-23T13:24:31;13.10;99.90
10276;DHT22;5183;51.190;6.820;2023-03-23T13:27:01;13.20;99.90
10276;DHT22;5183;51.190;6.820;2023-03-23T13:29:28;13.20;99.90
10276;DHT22;5183;51.190;6.820;2023-03-23T13:32:06;13.20;99.90
10276;DHT22;5183;51.190;6.820;2023-03-23T13:34:35;13.10;99.90
10276;DHT22;5183;51.190;6.820;2023-03-23T13:37:04;13.00;99.90
10276;DHT22;5183;51.190;6.820;2023-03-23T13:39:35;12.90;99.90
10276;DHT22;5183;51.190;6.820;2023-03-23T13:42:17;12.80;99.90
10276;DHT22;5183;51.190;6.820;2023-03-23T13:45:06;12.70;99.90
10276;DHT22;5183;51.190;6.820;2023-03-23T13:47:40;12.60;99.90
10276;DHT22;5183;51.190;6.820;2023-03-23T13:50:25;12.60;99.90
10276;DHT22;5183;51.190;6.820;2023-03-23T13:52:58;12.50;99.90
10276;DHT22;5183;51.190;6.820;2023-03-23T13:55:40;12.50;99.90
10276;DHT22;5183;51.190;6.820;2023-03-23T13:58:23;12.60;99.90
10276;DHT22;5183;51.190;6.820;2023-03-23T14:01:09;12.70;99.90
10276;DHT22;5183;51.190;6.820;2023-03-23T14:03:38;12.80;99.90
10276;DHT22;5183;51.190;6.820;2023-03-23T14:06:10;12.80;99.90
10276;DHT22;5183;51.190;6.820;2023-03-23T14:08:40;12.90;99.90
10276;DHT22;5183;51.190;6.820;2023-03-23T14:11:14;13.00;99.90
10276;DHT22;5183;51.190;6.820;2023-03-23T14:13:47;13.10;99.90
10276;DHT22;5183;51.190;6.820;2023-03-23T14:16:19;13.20;99.90
10276;DHT22;5183;51.190;6.820;2023-03-23T14:18:53;13.20;99.90
10276;DHT22;5183;51.190;6.820;2023-03-23T14:21:33;13.30;99.90
10276;DHT22;5183;51.190;6.820;2023-03-23T14:24:01;13.40;99.90
10276;DHT22;5183;51.190;6.820;2023-03-23T14:26:28;13.60;99.90
10276;DHT22;5183;51.190;6.820;2023-03-23T14:28:57;13.70;99.90
10276;DHT22;5183;51.190;6.820;2023-03-23T14:31:26;13.80;99.90
10276;DHT22;5183;51.190;6.820;2023-03-23T14:33:55;13.80;99.90
10276;DHT22;5183;51.190;6.820;2023-03-23T14:36:24;13.90;1.00
10276;DHT22;5183;51.190;6.820;2023-03-23T14:39:01;14.00;70.10
10276;DHT22;5183;51.190;6.820;2023-03-23T14:41:30;14.10;97.80
10276;DHT22;5183;51.190;6.820;2023-03-23T14:44:00;14.00;99.90
10276;DHT22;5183;51.190;6.820;2023-03-23T14:46:27;14.00;99.90
10276;DHT22;5183;51.190;6.820;2023-03-23T14:48:54;14.00;1.00
10276;DHT22;5183;51.190;6.820;2023-03-23T14:51:21;14.00;99.90
10276;DHT22;5183;51.190;6.820;2023-03-23T14:53:48;14.00;56.40
10276;DHT22;5183;51.190;6.820;2023-03-23T14:56:19;13.80;91.10
10276;DHT22;5183;51.190;6.820;2023-03-23T14:58:48;13.70;1.00
10276;DHT22;5183;51.190;6.820;2023-03-23T15:01:18;13.60;99.90
10276;DHT22;5183;51.190;6.820;2023-03-23T15:03:53;13.50;1.00
10276;DHT22;5183;51.190;6.820;2023-03-23T15:06:24;13.50;98.60
10276;DHT22;5183;51.190;6.820;2023-03-23T15:08:54;13.50;99.90
10276;DHT22;5183;51.190;6.820;2023-03-23T15:11:26;13.50;99.90
10276;DHT22;5183;51.190;6.820;2023-03-23T15:13:56;13.40;99.90
10276;DHT22;5183;51.190;6.820;2023-03-23T15:16:28;13.60;1.00
10276;DHT22;5183;51.190;6.820;2023-03-23T15:18:58;13.90;99.90
10276;DHT22;5183;51.190;6.820;2023-03-23T15:21:28;14.20;1.00
10276;DHT22;5183;51.190;6.820;2023-03-23T15:23:56;14.40;1.00
10276;DHT22;5183;51.190;6.820;2023-03-23T15:26:30;14.60;99.90
10276;DHT22;5183;51.190;6.820;2023-03-23T15:29:13;14.70;1.00
10276;DHT22;5183;51.190;6.820;2023-03-23T15:31:43;14.90;99.90
10276;DHT22;5183;51.190;6.820;2023-03-23T15:34:19;14.90;99.90
10276;DHT22;5183;51.190;6.820;2023-03-23T15:36:50;15.00;1.00
10276;DHT22;5183;51.190;6.820;2023-03-23T15:39:18;15.20;1.00
10276;DHT22;5183;51.190;6.820;2023-03-23T15:41:47;15.20;15.70
10276;DHT22;5183;51.190;6.820;2023-03-23T15:44:22;15.30;99.90
10276;DHT22;5183;51.190;6.820;2023-03-23T15:46:52;15.40;99.90
10276;DHT22;5183;51.190;6.820;2023-03-23T15:49:20;15.50;1.00
10276;DHT22;5183;51.190;6.820;2023-03-23T15:51:48;15.60;99.90
10276;DHT22;5183;51.190;6.820;2023-03-23T15:54:16;15.60;99.90
10276;DHT22;5183;51.190;6.820;2023-03-23T15:56:43;15.70;99.90
10276;DHT22;5183;51.190;6.820;2023-03-23T15:59:11;15.90;1.00
10276;DHT22;5183;51.190;6.820;2023-03-23T16:01:40;16.00;47.90
10276;DHT22;5183;51.190;6.820;2023-03-23T16:04:11;16.10;99.90
10276;DHT22;5183;51.190;6.820;2023-03-23T16:06:39;16.20;1.00
10276;DHT22;5183;51.190;6.820;2023-03-23T16:09:07;16.20;9.40
10276;DHT22;5183;51.190;6.820;2023-03-23T16:11:39;16.20;1.00
10276;DHT22;5183;51.190;6.820;2023-03-23T16:14:06;16.20;1.00
10276;DHT22;5183;51.190;6.820;2023-03-23T16:16:36;16.10;99.90
10276;DHT22;5183;51.190;6.820;2023-03-23T16:19:04;16.10;1.00
10276;DHT22;5183;51.190;6.820;2023-03-23T16:21:32;16.00;1.00
10276;DHT22;5183;51.190;6.820;2023-03-23T16:23:59;16.00;99.90
10276;DHT22;5183;51.190;6.820;2023-03-23T16:26:26;16.00;99.90